Time;durP1;ratioP1;P1;durP2;ratioP2;P2;SDS_P1;SDS_P2;PMS_P1;PMS_P2;Temp;Humidity;BMP_temperature;BMP_pressure;BME280_temperature;BME280_humidity;BME280_pressure;Samples;Min_cycle;Max_cycle;Signal;HPM_P1;HPM_P2
2022/09/06 00:03:49;;;;;;;3.70;2.20;;;;;;;20.86;60.05;96773.81;10557524;28;20066;-27
2022/09/06 00:08:49;;;;;;;4.03;2.30;;;;;;;20.91;60.18;96777.19;10559568;28;20286;-27
2022/09/06 00:13:50;;;;;;;3.20;2.30;;;;;;;20.92;60.21;96780.56;10559106;28;20066;-27
2022/09/06 00:18:54;;;;;;;2.33;2.10;;;;;;;20.90;60.35;96780.56;10561594;28;20043;-27
2022/09/06 00:23:54;;;;;;;5.65;1.70;;;;;;;20.99;59.88;96785.56;10555924;28;20543;-27
2022/09/06 00:28:55;;;;;;;2.85;2.15;;;;;;;21.13;59.69;96780.38;10554769;28;20024;-27
2022/09/06 00:33:55;;;;;;;4.17;2.37;;;;;;;21.05;59.57;96785.50;10561624;28;20024;-27
2022/09/06 00:38:55;;;;;;;2.50;2.30;;;;;;;20.97;59.99;96787.28;10562249;28;20780;-26
2022/09/06 00:43:56;;;;;;;2.63;2.03;;;;;;;20.94;59.89;96782.22;10549535;28;20031;-27
2022/09/06 00:49:03;;;;;;;2.93;2.00;;;;;;;20.92;60.25;96791.59;10558492;28;20561;-28
2022/09/06 00:54:06;;;;;;;3.72;2.17;;;;;;;20.91;59.99;96789.91;10558362;28;20793;-27
2022/09/06 00:59:07;;;;;;;3.50;2.10;;;;;;;21.00;59.90;96794.06;10547032;28;20039;-26
2022/09/06 01:04:07;;;;;;;2.90;2.55;;;;;;;21.04;59.85;96793.19;10561093;28;20032;-26
2022/09/06 01:09:16;;;;;;;3.70;2.10;;;;;;;20.98;60.06;96799.16;10557066;28;20035;-26
2022/09/06 01:14:50;;;;;;;2.60;1.77;;;;;;;21.13;59.80;96805.84;10554847;28;20488;-27
2022/09/06 01:20:08;;;;;;;3.20;2.33;;;;;;;21.15;59.26;96810.03;10554575;28;20736;-27
2022/09/06 01:25:19;;;;;;;2.50;2.15;;;;;;;20.98;59.75;96809.34;10562207;28;20023;-27
2022/09/06 01:30:20;;;;;;;3.25;1.70;;;;;;;20.93;59.96;96803.44;10552544;28;20499;-27
2022/09/06 01:35:46;;;;;;;4.07;2.33;;;;;;;20.95;60.00;96809.38;10553979;28;20035;-27
2022/09/06 01:40:47;;;;;;;2.53;2.03;;;;;;;20.93;60.32;96810.22;10557938;28;20082;-27
2022/09/06 01:45:56;;;;;;;3.87;2.70;;;;;;;20.92;60.38;96808.53;10545265;28;20079;-27
2022/09/06 01:51:13;;;;;;;2.95;1.95;;;;;;;20.92;60.42;96811.94;10554953;28;20423;-27
2022/09/06 01:56:30;;;;;;;6.90;2.50;;;;;;;20.95;60.34;96813.59;10554453;28;20092;-27
2022/09/06 02:01:48;;;;;;;5.95;2.28;;;;;;;21.04;59.81;96813.56;10553662;28;20059;-27
2022/09/06 02:06:57;;;;;;;3.17;2.25;;;;;;;21.00;60.09;96807.63;10555817;28;20431;-28
2022/09/06 02:12:00;;;;;;;2.08;1.70;;;;;;;20.94;60.24;96804.28;10557138;28;20046;-28
2022/09/06 02:17:02;;;;;;;2.35;2.00;;;;;;;20.92;60.25;96800.91;10551413;28;20031;-27
2022/09/06 02:22:08;;;;;;;3.40;2.17;;;;;;;20.91;60.51;96801.78;10540044;28;20532;-27
2022/09/06 02:27:10;;;;;;;5.83;2.90;;;;;;;20.93;60.41;96800.91;10556206;28;20055;-27
2022/09/06 02:32:22;;;;;;;4.85;2.50;;;;;;;20.88;60.65;96802.63;10554955;28;20137;-26
2022/09/06 02:37:27;;;;;;;3.70;2.20;;;;;;;20.89;60.59;96799.22;10551655;28;20396;-27
2022/09/06 02:42:27;;;;;;;10.23;2.80;;;;;;;20.86;60.71;96809.44;10556909;28;20035;-28
2022/09/06 02:47:27;;;;;;;3.92;2.10;;;;;;;20.91;60.77;96802.63;10548941;28;20046;-28
2022/09/06 02:52:28;;;;;;;5.27;2.43;;;;;;;20.90;60.34;96789.91;10555109;28;20040;-27
2022/09/06 02:57:28;;;;;;;3.60;2.33;;;;;;;20.92;60.72;96804.31;10548076;28;20039;-28
2022/09/06 03:02:29;;;;;;;5.80;2.30;;;;;;;20.88;60.93;96801.81;10555540;28;20066;-27
2022/09/06 03:07:29;;;;;;;4.85;1.98;;;;;;;20.86;60.95;96794.19;10553684;28;20044;-27
2022/09/06 03:12:29;;;;;;;4.37;2.63;;;;;;;20.85;61.29;96797.53;10562238;28;20038;-27
2022/09/06 03:17:30;;;;;;;6.10;2.43;;;;;;;20.85;61.43;96794.16;10547989;28;20035;-27
2022/09/06 03:22:30;;;;;;;5.97;2.30;;;;;;;20.83;61.52;96788.22;10549832;28;20660;-27
2022/09/06 03:27:31;;;;;;;9.87;2.73;;;;;;;20.81;61.77;96795.88;10550617;28;20028;-27
2022/09/06 03:32:32;;;;;;;5.55;2.47;;;;;;;20.82;61.85;96792.47;10554927;28;20277;-27
2022/09/06 03:37:32;;;;;;;6.05;2.08;;;;;;;20.85;61.52;96791.59;10560275;27;20028;-27
2022/09/06 03:42:32;;;;;;;6.95;2.60;;;;;;;20.90;61.92;96798.38;10563030;28;20032;-26
2022/09/06 03:47:33;;;;;;;5.50;2.53;;;;;;;20.84;62.59;96785.69;10549841;28;20027;-27
2022/09/06 03:52:33;;;;;;;6.28;2.55;;;;;;;20.78;62.63;96788.28;10560011;28;20078;-29
2022/09/06 03:57:34;;;;;;;7.30;2.10;;;;;;;20.81;63.13;96800.97;10557269;28;20039;-27
2022/09/06 04:02:34;;;;;;;6.57;2.73;;;;;;;20.82;62.99;96795.00;10562005;28;20066;-26
2022/09/06 04:07:36;;;;;;;7.00;3.03;;;;;;;20.79;63.67;96792.50;10558009;28;20301;-26
2022/09/06 04:12:37;;;;;;;5.50;3.13;;;;;;;20.77;63.59;96788.28;10565848;28;20070;-26
2022/09/06 04:17:37;;;;;;;8.83;2.97;;;;;;;20.76;63.75;96792.53;10559179;28;20467;-27
2022/09/06 04:22:38;;;;;;;6.80;2.20;;;;;;;20.75;64.12;96801.03;10553936;28;20285;-27
2022/09/06 04:27:38;;;;;;;8.45;2.58;;;;;;;20.80;63.48;96808.63;10546640;28;20032;-31
2022/09/06 04:32:39;;;;;;;6.27;3.13;;;;;;;20.77;64.02;96799.31;10562633;28;20073;-27
2022/09/06 04:37:39;;;;;;;8.70;2.53;;;;;;;20.70;63.99;96777.31;10556486;28;20644;-27
2022/09/06 04:42:40;;;;;;;4.57;2.50;;;;;;;20.77;64.40;96786.59;10558631;28;20023;-26
2022/09/06 04:47:40;;;;;;;5.30;2.40;;;;;;;20.76;64.31;96787.44;10557281;27;20510;-27
2022/09/06 04:52:40;;;;;;;4.97;2.40;;;;;;;20.74;64.59;96799.34;10558098;28;20093;-26
2022/09/06 04:57:41;;;;;;;6.17;2.67;;;;;;;20.74;64.48;96804.44;10555926;28;20043;-27
2022/09/06 05:02:42;;;;;;;5.70;2.50;;;;;;;20.74;64.43;96814.59;10555460;28;20035;-26
2022/09/06 05:07:42;;;;;;;8.23;2.95;;;;;;;20.72;64.97;96815.47;10559411;28;20514;-26
2022/09/06 05:12:42;;;;;;;4.87;2.57;;;;;;;20.83;64.27;96806.91;10561504;28;20036;-27
2022/09/06 05:17:43;;;;;;;6.93;2.70;;;;;;;20.85;64.01;96810.28;10563300;28;20043;-27
2022/09/06 05:22:51;;;;;;;6.13;2.28;;;;;;;20.85;64.21;96822.13;10553520;28;20544;-26
2022/09/06 05:27:51;;;;;;;6.10;2.72;;;;;;;20.84;64.31;96825.53;10557447;28;20031;-27
2022/09/06 05:32:52;;;;;;;7.53;2.70;;;;;;;20.92;64.30;96828.91;10556528;28;20047;-27
2022/09/06 05:37:52;;;;;;;7.30;2.20;;;;;;;20.85;64.02;96833.19;10554078;28;20035;-27
2022/09/06 05:42:52;;;;;;;4.83;2.30;;;;;;;20.82;64.29;96843.34;10558017;28;20036;-28
2022/09/06 05:47:53;;;;;;;6.40;2.45;;;;;;;20.80;64.57;96840.00;10549961;28;20032;-27
2022/09/06 05:52:53;;;;;;;6.72;2.65;;;;;;;20.81;64.66;96846.75;10554879;28;20526;-27
2022/09/06 05:57:53;;;;;;;6.17;2.33;;;;;;;20.80;64.96;96844.25;10551295;28;20484;-27
2022/09/06 06:02:54;;;;;;;9.30;2.60;;;;;;;20.87;63.88;96836.56;10557527;28;20089;-27
2022/09/06 06:07:56;;;;;;;8.43;2.87;;;;;;;20.90;64.31;96836.53;10555877;28;20682;-27
2022/09/06 06:12:57;;;;;;;6.15;2.38;;;;;;;20.87;64.87;96846.75;10554788;28;20028;-27
2022/09/06 06:17:57;;;;;;;6.00;2.23;;;;;;;20.83;65.33;96842.53;10556881;28;20040;-28
2022/09/06 06:22:57;;;;;;;7.57;2.60;;;;;;;20.87;65.24;96856.13;10549149;28;20035;-29
2022/09/06 06:27:58;;;;;;;6.40;3.03;;;;;;;20.84;65.00;96841.66;10555830;28;20056;-28
2022/09/06 06:32:59;;;;;;;7.03;2.47;;;;;;;20.90;64.78;96846.72;10543334;28;20088;-27
2022/09/06 06:38:00;;;;;;;3.55;2.38;;;;;;;20.93;64.54;96843.31;10551748;28;20035;-27
2022/09/06 06:43:00;;;;;;;5.22;2.55;;;;;;;20.91;65.18;96835.72;10554046;28;20035;-27
2022/09/06 06:48:01;;;;;;;7.87;3.00;;;;;;;20.94;64.91;96838.22;10549332;28;20045;-27
2022/09/06 06:53:01;;;;;;;4.82;2.47;;;;;;;21.03;64.51;96834.75;10553196;28;20110;-28
2022/09/06 06:58:02;;;;;;;7.70;2.60;;;;;;;21.03;64.98;96843.25;10551473;28;20701;-27
2022/09/06 07:03:03;;;;;;;9.77;3.47;;;;;;;21.02;66.33;96850.88;10550439;28;20035;-26
2022/09/06 07:08:05;;;;;;;7.35;3.15;;;;;;;20.97;68.18;96847.53;10552752;28;20056;-28
2022/09/06 07:13:06;;;;;;;8.80;3.40;;;;;;;20.94;68.51;96843.31;10556248;28;20181;-27
2022/09/06 07:18:06;;;;;;;5.97;2.73;;;;;;;20.99;67.31;96843.28;10553843;28;20164;-27
2022/09/06 07:23:06;;;;;;;7.70;2.57;;;;;;;20.99;66.89;96839.00;10549856;28;20028;-26
2022/09/06 07:28:07;;;;;;;9.73;2.90;;;;;;;20.95;68.35;96857.72;10546226;28;20039;-27
2022/09/06 07:33:07;;;;;;;7.23;3.07;;;;;;;20.96;68.63;96846.69;10553497;28;20039;-27
2022/09/06 07:38:07;;;;;;;7.17;3.63;;;;;;;20.95;67.26;96839.91;10552959;28;20298;-27
2022/09/06 07:43:08;;;;;;;7.13;3.03;;;;;;;21.03;68.08;96863.59;10554050;28;20043;-27
2022/09/06 07:48:08;;;;;;;5.10;2.83;;;;;;;20.94;71.05;96853.50;10543547;28;20515;-27
2022/09/06 07:53:09;;;;;;;11.03;3.10;;;;;;;20.92;71.79;96888.31;10551204;28;20114;-27
2022/09/06 07:58:09;;;;;;;8.25;3.03;;;;;;;20.91;71.63;96909.53;10550227;28;20089;-26
2022/09/06 08:03:10;;;;;;;7.97;3.57;;;;;;;20.89;71.95;96903.56;10550106;28;20096;-26
2022/09/06 08:08:10;;;;;;;7.50;3.28;;;;;;;20.89;72.66;96915.47;10550748;28;20293;-27
2022/09/06 08:13:11;;;;;;;7.10;2.90;;;;;;;20.86;72.34;96916.34;10554218;28;20032;-27
2022/09/06 08:18:11;;;;;;;11.87;3.47;;;;;;;20.82;73.21;96927.34;10550038;28;20168;-26
2022/09/06 08:23:11;;;;;;;9.43;3.30;;;;;;;20.86;73.27;96936.69;10555991;28;20046;-27
2022/09/06 08:28:12;;;;;;;4.30;2.50;;;;;;;20.98;67.47;96931.50;10558784;28;20036;-26
2022/09/06 08:33:12;;;;;;;6.40;2.23;;;;;;;21.05;66.35;96928.06;10563843;28;20289;-27
2022/09/06 08:38:12;;;;;;;9.37;3.10;;;;;;;21.12;68.87;96917.00;10556506;28;20406;-28
2022/09/06 08:43:17;;;;;;;7.70;2.90;;;;;;;21.12;69.54;96929.72;10557293;28;20032;-27
2022/09/06 08:48:18;;;;;;;7.18;3.38;;;;;;;21.08;70.37;96943.34;10559826;28;20818;-27
2022/09/06 08:53:18;;;;;;;8.13;3.95;;;;;;;21.02;73.01;96938.28;10558536;28;20039;-27
2022/09/06 08:58:51;;;;;;;7.72;3.28;;;;;;;20.99;73.32;96929.81;10544039;28;20036;-27
2022/09/06 09:03:54;;;;;;;8.75;2.92;;;;;;;21.07;72.25;96913.63;10543777;28;20055;-26
2022/09/06 09:09:13;;;;;;;6.63;2.63;;;;;;;21.10;67.76;96898.34;10556862;28;20081;-27
2022/09/06 09:14:26;;;;;;;5.35;2.60;;;;;;;21.17;67.30;96894.91;10554309;28;20044;-27
2022/09/06 09:19:30;;;;;;;6.30;2.63;;;;;;;21.39;66.54;96876.03;10554354;28;20040;-27
2022/09/06 09:24:31;;;;;;;3.97;2.03;;;;;;;21.42;64.43;96863.28;10554721;28;20498;-27
2022/09/06 09:29:31;;;;;;;7.13;2.20;;;;;;;21.27;66.52;96857.47;10549309;28;20042;-27
2022/09/06 09:34:33;;;;;;;4.53;2.33;;;;;;;21.21;68.06;96855.81;10553318;28;20407;-27
2022/09/06 09:39:36;;;;;;;6.38;2.40;;;;;;;21.18;69.54;96844.81;10557633;28;20040;-27
2022/09/06 09:44:44;;;;;;;8.18;2.92;;;;;;;21.22;67.01;96834.59;10555757;28;20075;-27
2022/09/06 09:49:44;;;;;;;5.25;2.13;;;;;;;21.22;66.30;96842.22;10537811;28;20100;-26
2022/09/06 09:54:45;;;;;;;4.67;2.00;;;;;;;21.24;66.13;96837.13;10554660;28;20513;-27
2022/09/06 09:59:48;;;;;;;4.07;2.40;;;;;;;21.30;65.81;96827.72;10554402;28;20093;-27
2022/09/06 10:04:52;;;;;;;2.20;1.67;;;;;;;21.42;63.93;96817.44;10556614;28;20382;-27
2022/09/06 10:10:11;;;;;;;2.25;1.67;;;;;;;21.51;63.91;96817.34;10557200;28;20406;-27
2022/09/06 10:15:31;;;;;;;3.60;2.20;;;;;;;21.49;64.02;96811.38;10547762;28;20070;-27
2022/09/06 10:20:41;;;;;;;3.17;1.90;;;;;;;21.51;63.03;96796.09;10553024;28;20039;-27
2022/09/06 10:25:45;;;;;;;2.55;1.63;;;;;;;21.53;63.29;96796.91;10551095;28;20023;-27
2022/09/06 10:31:05;;;;;;;3.25;2.20;;;;;;;21.60;62.57;96791.75;10542868;28;20490;-27
2022/09/06 10:36:06;;;;;;;3.70;1.83;;;;;;;21.63;62.69;96790.88;10548348;28;20077;-27
2022/09/06 10:41:40;;;;;;;3.88;1.70;;;;;;;21.61;62.89;96779.84;10555728;28;20041;-28
2022/09/06 10:46:44;;;;;;;2.53;1.50;;;;;;;21.61;62.59;96783.25;10541927;28;20036;-27
2022/09/06 10:51:55;;;;;;;4.57;2.30;;;;;;;21.58;62.66;96775.66;10556874;28;20039;-27
2022/09/06 10:57:14;;;;;;;3.00;1.60;;;;;;;21.71;62.63;96789.94;10551583;28;20039;-27
2022/09/06 11:02:44;;;;;;;2.58;1.83;;;;;;;21.74;62.51;96795.00;10544420;28;20100;-26
2022/09/06 11:07:58;;;;;;;4.93;1.85;;;;;;;21.73;62.43;96800.97;10540311;28;20089;-27
2022/09/06 11:13:14;;;;;;;6.10;2.58;;;;;;;21.75;62.24;96796.72;10558610;28;20044;-27
2022/09/06 11:18:26;;;;;;;2.08;1.63;;;;;;;21.77;62.65;96800.09;10541339;28;20115;-28
2022/09/06 11:23:47;;;;;;;2.42;1.73;;;;;;;21.78;62.39;96791.56;10549971;28;20161;-27
2022/09/06 11:28:59;;;;;;;2.97;1.35;;;;;;;21.78;62.72;96799.22;10537971;28;20406;-27
2022/09/06 11:34:09;;;;;;;1.95;1.15;;;;;;;21.54;63.24;96806.25;10553384;28;20031;-27
2022/09/06 11:39:10;;;;;;;2.83;1.52;;;;;;;21.54;63.38;96816.44;10555002;28;20043;-28
2022/09/06 11:44:10;;;;;;;4.25;1.80;;;;;;;21.72;62.74;96826.50;10549106;28;20043;-27
2022/09/06 11:49:13;;;;;;;3.87;1.50;;;;;;;21.72;62.60;96816.28;10551907;28;20510;-26
2022/09/06 11:54:17;;;;;;;4.50;1.75;;;;;;;21.59;62.95;96824.88;10552280;28;20123;-27
2022/09/06 11:59:23;;;;;;;3.33;1.48;;;;;;;21.62;62.84;96824.84;10557434;28;20031;-27
2022/09/06 12:04:43;;;;;;;2.42;1.40;;;;;;;21.53;63.16;96830.88;10560420;28;20491;-28
2022/09/06 12:09:45;;;;;;;4.68;1.88;;;;;;;21.59;62.94;96830.84;10557465;28;20116;-28
2022/09/06 12:14:45;;;;;;;1.88;1.30;;;;;;;21.51;63.20;96831.75;10560656;28;20036;-27
2022/09/06 12:19:49;;;;;;;3.33;1.50;;;;;;;21.56;63.03;96830.84;10557279;28;20032;-28
2022/09/06 12:24:52;;;;;;;2.13;1.52;;;;;;;21.54;62.84;96830.03;10561739;28;20165;-27
2022/09/06 12:29:58;;;;;;;3.42;1.80;;;;;;;21.69;62.33;96821.41;10557600;28;20040;-27
2022/09/06 12:35:01;;;;;;;4.00;1.83;;;;;;;21.75;62.31;96806.91;10557053;28;20031;-27
2022/09/06 12:40:04;;;;;;;2.80;1.80;;;;;;;21.73;62.71;96795.88;10561027;27;20024;-27
2022/09/06 12:45:06;;;;;;;2.10;1.50;;;;;;;21.69;62.42;96791.69;10554793;28;20032;-27
2022/09/06 12:50:22;;;;;;;2.33;1.50;;;;;;;21.63;62.69;96778.97;10557052;28;20660;-27
2022/09/06 12:55:34;;;;;;;1.98;1.63;;;;;;;21.75;62.30;96762.72;10558137;28;20042;-27
2022/09/06 13:00:43;;;;;;;2.53;1.27;;;;;;;21.78;62.19;96749.94;10550893;28;20028;-27
2022/09/06 13:05:44;;;;;;;3.70;1.48;;;;;;;21.79;62.53;96744.81;10545378;28;20085;-27
2022/09/06 13:10:46;;;;;;;2.83;1.65;;;;;;;21.72;62.82;96738.13;10558342;28;20407;-27
2022/09/06 13:15:47;;;;;;;3.63;1.90;;;;;;;21.80;62.67;96728.66;10554083;28;20052;-26
2022/09/06 13:21:10;;;;;;;2.67;1.60;;;;;;;21.77;63.26;96707.47;10555037;28;20055;-28
2022/09/06 13:26:11;;;;;;;3.08;2.05;;;;;;;21.87;63.09;96709.88;10557352;28;20066;-27
2022/09/06 13:31:21;;;;;;;3.13;1.90;;;;;;;21.88;63.44;96716.66;10558852;28;20074;-27
2022/09/06 13:36:25;;;;;;;3.97;2.10;;;;;;;21.88;63.73;96708.19;10553790;28;20040;-27
2022/09/06 13:41:25;;;;;;;5.50;1.98;;;;;;;21.91;63.70;96708.97;10559068;28;20050;-27
2022/09/06 13:46:26;;;;;;;2.93;1.70;;;;;;;21.94;63.87;96700.44;10555448;28;20035;-27
2022/09/06 13:51:26;;;;;;;3.58;1.90;;;;;;;21.96;63.96;96701.25;10560180;28;20032;-27
2022/09/06 13:56:27;;;;;;;4.38;1.92;;;;;;;21.94;63.60;96696.19;10553930;28;20032;-27
2022/09/06 14:01:28;;;;;;;4.75;2.00;;;;;;;21.97;64.13;96685.13;10542372;28;20043;-29
2022/09/06 14:06:28;;;;;;;3.00;1.67;;;;;;;21.99;63.97;96694.41;10555141;28;20027;-28
2022/09/06 14:11:28;;;;;;;4.00;1.77;;;;;;;22.01;63.50;96694.41;10555332;28;20042;-28
2022/09/06 14:16:30;;;;;;;5.17;1.93;;;;;;;21.99;64.09;96684.22;10553441;28;20542;-27
2022/09/06 14:21:31;;;;;;;5.75;2.00;;;;;;;21.97;64.09;96685.94;10551184;28;20114;-27
2022/09/06 14:26:32;;;;;;;3.70;1.60;;;;;;;21.94;63.66;96680.91;10557300;28;20385;-29
2022/09/06 14:31:33;;;;;;;5.97;2.03;;;;;;;21.96;64.03;96684.25;10553893;28;20028;-26
2022/09/06 14:36:33;;;;;;;2.70;1.50;;;;;;;21.95;64.01;96682.59;10552072;28;20148;-28
2022/09/06 14:41:34;;;;;;;3.55;1.75;;;;;;;21.97;63.77;96680.84;10556592;28;20720;-27
2022/09/06 14:46:35;;;;;;;4.50;1.75;;;;;;;21.96;63.58;96684.25;10555765;28;20078;-27
2022/09/06 14:51:37;;;;;;;3.75;1.65;;;;;;;21.98;63.25;96682.53;10559537;28;20034;-27
2022/09/06 14:56:39;;;;;;;3.63;1.77;;;;;;;22.03;63.28;96667.16;10551821;28;20502;-27
2022/09/06 15:01:40;;;;;;;4.28;1.92;;;;;;;22.02;63.10;96673.13;10544646;28;20491;-27
2022/09/06 15:06:43;;;;;;;6.53;2.42;;;;;;;22.03;63.94;96660.38;10555375;28;20051;-28
2022/09/06 15:11:47;;;;;;;11.88;2.63;;;;;;;22.01;63.92;96667.22;10547167;28;20039;-27
2022/09/06 15:16:49;;;;;;;7.53;2.17;;;;;;;21.96;64.83;96663.88;10551559;28;20084;-27
2022/09/06 15:21:50;;;;;;;9.48;1.90;;;;;;;21.98;64.80;96651.94;10548571;28;20085;-27
2022/09/06 15:26:50;;;;;;;8.63;2.20;;;;;;;22.01;64.52;96657.00;10555067;28;20449;-27
2022/09/06 15:31:51;;;;;;;7.88;1.95;;;;;;;22.01;65.06;96654.47;10547975;28;20036;-27
2022/09/06 15:36:53;;;;;;;4.22;2.33;;;;;;;21.93;64.03;96633.34;10552674;28;20032;-28
2022/09/06 15:41:53;;;;;;;6.95;2.30;;;;;;;22.02;63.80;96607.69;10555050;28;20036;-27
2022/09/06 15:46:58;;;;;;;4.83;1.70;;;;;;;22.04;62.74;96590.66;10552698;28;20090;-28
2022/09/06 15:52:01;;;;;;;3.00;1.60;;;;;;;21.87;62.79;96577.34;10558519;28;20063;-27
2022/09/06 15:57:02;;;;;;;2.92;1.50;;;;;;;21.75;62.68;96577.53;10553911;28;20046;-27
2022/09/06 16:02:03;;;;;;;1.52;0.95;;;;;;;21.64;63.14;96573.44;10550788;28;20040;-27
2022/09/06 16:07:04;;;;;;;9.32;2.38;;;;;;;21.79;64.03;96570.66;10524356;28;20466;-28
2022/09/06 16:12:05;;;;;;;11.00;2.63;;;;;;;21.80;63.31;96565.56;10533270;28;20032;-27
2022/09/06 16:17:05;;;;;;;8.77;3.42;;;;;;;21.72;63.49;96566.56;10553567;28;20036;-28
2022/09/06 16:22:05;;;;;;;9.00;3.10;;;;;;;21.73;63.69;96571.59;10555620;28;20487;-28
2022/09/06 16:27:06;;;;;;;5.57;2.93;;;;;;;21.86;63.52;96565.47;10560672;28;20487;-28
2022/09/06 16:32:06;;;;;;;8.97;2.67;;;;;;;21.96;63.79;96566.13;10552697;28;20293;-28
2022/09/06 16:37:07;;;;;;;5.43;2.53;;;;;;;21.89;62.73;96549.28;10551023;28;20649;-28
2022/09/06 16:42:07;;;;;;;2.78;1.75;;;;;;;21.68;62.46;96544.50;10555643;28;20669;-27
2022/09/06 16:47:08;;;;;;;2.80;1.45;;;;;;;21.66;62.57;96541.97;10558378;28;20077;-26
2022/09/06 16:52:08;;;;;;;4.07;1.70;;;;;;;21.63;62.78;96546.28;10558847;28;20028;-28
2022/09/06 16:57:08;;;;;;;2.47;1.40;;;;;;;21.51;62.79;96547.28;10552029;28;20032;-28
2022/09/06 17:02:09;;;;;;;3.20;1.57;;;;;;;21.47;62.78;96530.34;10556792;28;20040;-27
2022/09/06 17:07:09;;;;;;;2.90;1.23;;;;;;;21.46;62.80;96541.41;10559931;28;20032;-27
2022/09/06 17:12:09;;;;;;;6.70;2.07;;;;;;;21.48;63.13;96531.22;10562174;28;20040;-28
2022/09/06 17:17:10;;;;;;;5.43;1.83;;;;;;;21.69;62.99;96539.41;10555444;28;20039;-28
2022/09/06 17:22:11;;;;;;;2.00;1.27;;;;;;;21.62;62.64;96537.78;10553898;28;20079;-28
2022/09/06 17:27:12;;;;;;;4.40;1.30;;;;;;;21.49;62.87;96526.06;10545936;28;20049;-27
2022/09/06 17:32:12;;;;;;;4.35;1.40;;;;;;;21.45;62.72;96529.53;10553841;28;20099;-28
2022/09/06 17:37:13;;;;;;;2.40;1.30;;;;;;;21.44;63.29;96539.75;10527582;28;20032;-28
2022/09/06 17:42:13;;;;;;;34.72;3.28;;;;;;;21.47;63.18;96524.44;10527817;28;20205;-27
2022/09/06 17:47:14;;;;;;;14.57;2.43;;;;;;;21.41;63.54;96527.88;10528770;28;20038;-28
2022/09/06 17:52:15;;;;;;;1.45;1.13;;;;;;;21.38;63.50;96529.66;10537586;28;20410;-28
2022/09/06 17:57:15;;;;;;;4.23;1.40;;;;;;;21.32;63.52;96535.66;10527513;28;20054;-29
2022/09/06 18:02:16;;;;;;;2.90;1.50;;;;;;;21.40;64.23;96533.84;10539334;28;20036;-28
2022/09/06 18:07:16;;;;;;;3.45;1.10;;;;;;;21.42;63.50;96536.38;10524668;28;20039;-28
2022/09/06 18:12:18;;;;;;;2.03;1.30;;;;;;;21.35;64.74;96539.88;10531358;28;20043;-27
2022/09/06 18:17:18;;;;;;;4.45;1.48;;;;;;;21.28;64.57;96534.03;10533710;28;20033;-27
2022/09/06 18:22:20;;;;;;;3.10;1.45;;;;;;;21.27;64.43;96550.19;10528251;28;20625;-28
2022/09/06 18:27:20;;;;;;;2.15;1.17;;;;;;;21.18;64.37;96552.00;10528508;28;20044;-28
2022/09/06 18:32:21;;;;;;;4.00;1.10;;;;;;;21.21;64.15;96557.06;10527325;28;20031;-28
2022/09/06 18:37:21;;;;;;;3.67;1.20;;;;;;;21.15;64.34;96552.88;10521478;28;20035;-28
2022/09/06 18:42:22;;;;;;;4.05;1.10;;;;;;;21.22;64.08;96551.94;10536047;28;20035;-27
2022/09/06 18:47:22;;;;;;;4.43;1.20;;;;;;;21.22;63.91;96562.13;10541156;28;20039;-27
2022/09/06 18:52:23;;;;;;;6.40;1.13;;;;;;;21.30;63.58;96567.97;10534162;28;20049;-28
2022/09/06 18:57:23;;;;;;;2.83;1.23;;;;;;;21.26;63.53;96573.97;10542797;28;20402;-27
2022/09/06 19:02:25;;;;;;;1.63;1.03;;;;;;;21.24;63.46;96572.28;10531367;28;20044;-28
2022/09/06 19:07:25;;;;;;;3.53;1.13;;;;;;;21.24;63.46;96572.28;10535674;28;20032;-28
2022/09/06 19:12:26;;;;;;;2.87;1.50;;;;;;;21.31;62.96;96574.72;10540481;28;20036;-27
2022/09/06 19:17:26;;;;;;;3.00;1.10;;;;;;;21.35;62.95;96581.47;10529421;28;20294;-28
2022/09/06 19:22:26;;;;;;;2.63;0.87;;;;;;;21.22;63.17;96574.03;10539219;28;20062;-28
2022/09/06 19:27:27;;;;;;;4.50;1.70;;;;;;;21.18;63.34;96582.56;10536072;28;20066;-28
2022/09/06 19:32:27;;;;;;;3.03;1.17;;;;;;;21.17;63.06;96591.91;10539358;28;20027;-29
2022/09/06 19:37:28;;;;;;;3.17;1.20;;;;;;;21.21;62.95;96592.72;10533523;28;20089;-30
2022/09/06 19:42:29;;;;;;;4.15;2.05;;;;;;;21.25;62.77;96590.13;10544193;28;20297;-28
2022/09/06 19:47:29;;;;;;;4.80;1.00;;;;;;;21.19;62.98;96594.41;10527804;28;20544;-29
2022/09/06 19:52:29;;;;;;;1.57;1.00;;;;;;;21.09;63.04;96593.72;10542810;28;20491;-29
2022/09/06 19:57:30;;;;;;;4.43;1.47;;;;;;;21.09;62.86;96591.16;10536360;28;20493;-29
2022/09/06 20:02:30;;;;;;;2.50;1.73;;;;;;;21.06;63.17;96590.34;10529733;28;20290;-31
2022/09/06 20:07:31;;;;;;;3.05;1.25;;;;;;;21.02;63.17;96587.00;10541052;28;20032;-29
2022/09/06 20:12:31;;;;;;;6.67;1.50;;;;;;;21.05;63.23;96586.13;10539505;28;20127;-29
2022/09/06 20:17:33;;;;;;;4.03;1.27;;;;;;;21.04;63.41;96585.28;10537631;28;20038;-27
2022/09/06 20:22:33;;;;;;;2.17;1.00;;;;;;;21.01;63.44;96575.13;10552627;28;20035;-26
2022/09/06 20:27:33;;;;;;;3.23;1.43;;;;;;;21.07;63.01;96569.13;10550726;28;20028;-26
2022/09/06 20:32:34;;;;;;;2.87;1.30;;;;;;;21.04;63.09;96564.91;10560196;28;20314;-25
2022/09/06 20:37:37;;;;;;;4.03;1.27;;;;;;;21.05;63.44;96570.84;10557388;28;20436;-27
2022/09/06 20:42:40;;;;;;;3.55;1.35;;;;;;;21.01;63.04;96570.03;10559966;28;20444;-26
2022/09/06 20:47:41;;;;;;;3.15;1.30;;;;;;;20.98;63.04;96570.06;10545178;28;20028;-26
2022/09/06 20:52:41;;;;;;;4.53;1.50;;;;;;;20.99;63.14;96579.38;10558972;28;20506;-27
2022/09/06 20:57:42;;;;;;;6.07;1.67;;;;;;;20.96;62.95;96570.97;10556359;28;20047;-26
2022/09/06 21:02:42;;;;;;;4.55;1.42;;;;;;;20.97;62.77;96568.38;10556074;28;20119;-27
2022/09/06 21:07:42;;;;;;;4.73;1.20;;;;;;;20.96;62.98;96561.63;10561410;28;20028;-26
2022/09/06 21:12:43;;;;;;;4.93;1.47;;;;;;;21.01;62.48;96559.88;10556423;28;20043;-26
2022/09/06 21:17:43;;;;;;;3.60;1.40;;;;;;;21.04;62.63;96564.09;10559354;28;20040;-27
2022/09/06 21:22:43;;;;;;;3.47;1.10;;;;;;;21.00;62.83;96554.78;10550815;28;20411;-26
2022/09/06 21:27:44;;;;;;;3.57;1.13;;;;;;;21.03;62.72;96581.03;10547437;28;20480;-27
2022/09/06 21:32:44;;;;;;;4.87;1.50;;;;;;;21.05;62.37;96626.84;10559846;28;20036;-26
2022/09/06 21:37:44;;;;;;;3.70;1.50;;;;;;;20.99;62.43;96599.75;10555125;28;20094;-27
2022/09/06 21:42:45;;;;;;;2.77;1.47;;;;;;;21.01;62.37;96594.66;10555943;28;20118;-24
2022/09/06 21:47:45;;;;;;;3.73;1.33;;;;;;;21.03;61.99;96614.13;10553806;28;20277;-27
2022/09/06 21:52:45;;;;;;;4.83;1.13;;;;;;;21.00;62.08;96600.59;10555568;28;20290;-27
2022/09/06 21:57:46;;;;;;;3.50;1.30;;;;;;;21.06;62.01;96601.38;10554154;28;20101;-26
2022/09/06 22:02:46;;;;;;;2.95;1.10;;;;;;;21.25;62.04;96574.84;10554151;28;20040;-26
2022/09/06 22:07:47;;;;;;;2.70;0.93;;;;;;;21.21;61.66;96570.63;10557207;28;20142;-27
2022/09/06 22:12:48;;;;;;;3.67;1.40;;;;;;;21.12;61.65;96565.66;10562180;28;20289;-26
2022/09/06 22:17:48;;;;;;;3.70;1.25;;;;;;;21.09;61.87;96557.22;10542005;28;20036;-27
2022/09/06 22:22:48;;;;;;;2.20;1.23;;;;;;;21.08;61.87;96555.53;10550762;28;20038;-26
2022/09/06 22:27:49;;;;;;;1.97;0.93;;;;;;;21.02;62.05;96559.00;10545694;28;20036;-27
2022/09/06 22:32:49;;;;;;;2.70;1.10;;;;;;;21.01;62.01;96547.13;10556906;28;20597;-26
2022/09/06 22:37:49;;;;;;;3.83;1.00;;;;;;;21.01;61.85;96557.31;10553693;28;20564;-27
2022/09/06 22:42:50;;;;;;;6.03;1.80;;;;;;;21.02;61.74;96561.56;10552208;28;20582;-27
2022/09/06 22:47:50;;;;;;;4.00;1.37;;;;;;;21.01;62.07;96559.00;10550653;28;20510;-27
2022/09/06 22:52:50;;;;;;;1.87;0.83;;;;;;;21.09;61.85;96560.63;10553235;28;20043;-26
2022/09/06 22:57:51;;;;;;;2.17;1.20;;;;;;;21.08;61.64;96555.53;10549551;28;20157;-27
2022/09/06 23:02:52;;;;;;;1.73;0.90;;;;;;;21.03;61.66;96547.09;10539825;28;20036;-27
2022/09/06 23:07:53;;;;;;;2.95;1.15;;;;;;;21.00;62.14;96536.97;10554489;28;20032;-26
2022/09/06 23:12:53;;;;;;;4.13;1.23;;;;;;;20.99;62.27;96533.56;10556593;28;20040;-26
2022/09/06 23:17:54;;;;;;;1.90;1.13;;;;;;;21.00;62.38;96522.56;10551811;28;20038;-27
2022/09/06 23:22:54;;;;;;;2.03;1.00;;;;;;;20.97;62.39;96516.66;10549125;28;20399;-27
2022/09/06 23:27:58;;;;;;;3.13;1.00;;;;;;;20.99;62.27;96510.66;10546203;28;20021;-26